sensor_id;sensor_type;location;lat;lon;timestamp;pressure;altitude;pressure_sealevel;temperature;humidity
41254;BME280;26987;59.928;30.306;2023-04-08T00:00:46;102674.94;;;1.70;63.95
41254;BME280;26987;59.928;30.306;2023-04-08T00:03:14;102665.53;;;1.66;64.02
41254;BME280;26987;59.928;30.306;2023-04-08T00:05:43;102671.75;;;1.64;64.55
41254;BME280;26987;59.928;30.306;2023-04-08T00:08:11;102645.47;;;1.48;64.47
41254;BME280;26987;59.928;30.306;2023-04-08T00:10:39;102670.81;;;1.66;64.07
41254;BME280;26987;59.928;30.306;2023-04-08T00:13:08;102665.72;;;1.62;63.85
41254;BME280;26987;59.928;30.306;2023-04-08T00:15:36;102666.25;;;1.68;63.47
41254;BME280;26987;59.928;30.306;2023-04-08T00:18:05;102662.88;;;1.66;63.55
41254;BME280;26987;59.928;30.306;2023-04-08T00:20:33;102666.34;;;1.66;63.36
41254;BME280;26987;59.928;30.306;2023-04-08T00:23:02;102672.72;;;1.63;63.67
41254;BME280;26987;59.928;30.306;2023-04-08T00:25:30;102657.44;;;1.54;63.89
41254;BME280;26987;59.928;30.306;2023-04-08T00:27:58;102662.53;;;1.57;63.59
41254;BME280;26987;59.928;30.306;2023-04-08T00:30:27;102677.22;;;1.61;63.69
41254;BME280;26987;59.928;30.306;2023-04-08T00:32:55;102671.94;;;1.61;63.39
41254;BME280;26987;59.928;30.306;2023-04-08T00:35:22;102671.13;;;1.61;63.41
41254;BME280;26987;59.928;30.306;2023-04-08T00:37:51;102656.78;;;1.50;63.65
41254;BME280;26987;59.928;30.306;2023-04-08T00:40:20;102675.75;;;1.57;63.90
41254;BME280;26987;59.928;30.306;2023-04-08T00:42:48;102669.59;;;1.57;63.72
41254;BME280;26987;59.928;30.306;2023-04-08T00:45:16;102665.38;;;1.54;63.73
41254;BME280;26987;59.928;30.306;2023-04-08T00:47:44;102673.28;;;1.54;63.63
41254;BME280;26987;59.928;30.306;2023-04-08T00:50:12;102667.47;;;1.49;63.64
41254;BME280;26987;59.928;30.306;2023-04-08T00:52:40;102679.72;;;1.50;64.05
41254;BME280;26987;59.928;30.306;2023-04-08T00:55:07;102674.34;;;1.51;63.61
41254;BME280;26987;59.928;30.306;2023-04-08T00:57:37;102676.31;;;1.48;63.87
41254;BME280;26987;59.928;30.306;2023-04-08T01:00:06;102674.53;;;1.48;63.89
41254;BME280;26987;59.928;30.306;2023-04-08T01:02:39;102671.03;;;1.48;63.89
41254;BME280;26987;59.928;30.306;2023-04-08T01:05:14;102668.69;;;1.43;63.62
41254;BME280;26987;59.928;30.306;2023-04-08T01:07:48;102664.56;;;1.39;64.54
41254;BME280;26987;59.928;30.306;2023-04-08T01:10:18;102672.47;;;1.39;64.66
41254;BME280;26987;59.928;30.306;2023-04-08T01:12:53;102661.19;;;1.37;64.70
41254;BME280;26987;59.928;30.306;2023-04-08T01:15:23;102664.66;;;1.37;64.47
41254;BME280;26987;59.928;30.306;2023-04-08T01:17:52;102669.22;;;1.35;64.31
41254;BME280;26987;59.928;30.306;2023-04-08T01:20:21;102650.44;;;1.25;65.14
41254;BME280;26987;59.928;30.306;2023-04-08T01:23:05;102614.72;;;1.05;65.22
41254;BME280;26987;59.928;30.306;2023-04-08T01:25:37;102664.94;;;1.33;65.54
41254;BME280;26987;59.928;30.306;2023-04-08T01:28:09;102670.31;;;1.31;64.96
41254;BME280;26987;59.928;30.306;2023-04-08T01:30:38;102660.72;;;1.30;64.64
41254;BME280;26987;59.928;30.306;2023-04-08T01:33:09;102653.94;;;1.26;65.04
41254;BME280;26987;59.928;30.306;2023-04-08T01:35:38;102662.31;;;1.33;64.75
41254;BME280;26987;59.928;30.306;2023-04-08T01:38:08;102656.28;;;1.31;64.91
41254;BME280;26987;59.928;30.306;2023-04-08T01:40:37;102657.19;;;1.30;64.79
41254;BME280;26987;59.928;30.306;2023-04-08T01:43:08;102641.09;;;1.20;64.97
41254;BME280;26987;59.928;30.306;2023-04-08T01:45:37;102656.00;;;1.21;65.39
41254;BME280;26987;59.928;30.306;2023-04-08T01:48:06;102650.53;;;1.24;65.11
41254;BME280;26987;59.928;30.306;2023-04-08T01:50:34;102653.84;;;1.28;65.60
41254;BME280;26987;59.928;30.306;2023-04-08T01:53:03;102642.06;;;1.19;64.87
41254;BME280;26987;59.928;30.306;2023-04-08T01:55:33;102622.44;;;1.08;64.96
41254;BME280;26987;59.928;30.306;2023-04-08T01:58:03;102650.34;;;1.27;65.36
41254;BME280;26987;59.928;30.306;2023-04-08T02:00:33;102636.28;;;1.12;65.27
41254;BME280;26987;59.928;30.306;2023-04-08T02:03:04;102649.78;;;1.22;65.33
41254;BME280;26987;59.928;30.306;2023-04-08T02:05:33;102654.88;;;1.25;65.87
41254;BME280;26987;59.928;30.306;2023-04-08T02:08:02;102645.34;;;1.22;65.37
41254;BME280;26987;59.928;30.306;2023-04-08T02:10:30;102649.22;;;1.17;66.15
41254;BME280;26987;59.928;30.306;2023-04-08T02:12:58;102639.59;;;1.16;66.17
41254;BME280;26987;59.928;30.306;2023-04-08T02:15:28;102645.44;;;1.21;65.93
41254;BME280;26987;59.928;30.306;2023-04-08T02:18:07;102638.47;;;1.20;66.08
41254;BME280;26987;59.928;30.306;2023-04-08T02:20:37;102644.69;;;1.19;66.37
41254;BME280;26987;59.928;30.306;2023-04-08T02:23:13;102628.75;;;1.06;66.17
41254;BME280;26987;59.928;30.306;2023-04-08T02:25:44;102633.31;;;1.04;66.20
41254;BME280;26987;59.928;30.306;2023-04-08T02:28:13;102647.72;;;1.12;66.74
41254;BME280;26987;59.928;30.306;2023-04-08T02:30:43;102639.22;;;1.07;66.33
41254;BME280;26987;59.928;30.306;2023-04-08T02:33:16;102640.00;;;1.09;66.50
41254;BME280;26987;59.928;30.306;2023-04-08T02:35:47;102642.81;;;1.06;66.94
41254;BME280;26987;59.928;30.306;2023-04-08T02:38:15;102636.88;;;1.03;66.47
41254;BME280;26987;59.928;30.306;2023-04-08T02:40:43;102642.91;;;1.05;67.07
41254;BME280;26987;59.928;30.306;2023-04-08T02:43:11;102635.66;;;1.08;66.59
41254;BME280;26987;59.928;30.306;2023-04-08T02:45:41;102639.22;;;1.07;66.96
41254;BME280;26987;59.928;30.306;2023-04-08T02:48:09;102643.00;;;1.03;67.36
41254;BME280;26987;59.928;30.306;2023-04-08T02:50:39;102630.75;;;1.02;67.25
41254;BME280;26987;59.928;30.306;2023-04-08T02:53:07;102636.03;;;1.02;66.92
41254;BME280;26987;59.928;30.306;2023-04-08T02:55:36;102639.84;;;0.98;66.91
41254;BME280;26987;59.928;30.306;2023-04-08T02:58:04;102599.75;;;0.77;66.90
41254;BME280;26987;59.928;30.306;2023-04-08T03:00:32;102638.22;;;0.95;67.46
41254;BME280;26987;59.928;30.306;2023-04-08T03:03:00;102626.44;;;0.86;67.42
41254;BME280;26987;59.928;30.306;2023-04-08T03:05:28;102626.03;;;0.93;67.56
41254;BME280;26987;59.928;30.306;2023-04-08T03:08:00;102634.63;;;0.96;67.35
41254;BME280;26987;59.928;30.306;2023-04-08T03:10:28;102631.13;;;0.96;67.95
41254;BME280;26987;59.928;30.306;2023-04-08T03:12:56;102629.25;;;0.98;68.06
41254;BME280;26987;59.928;30.306;2023-04-08T03:15:23;102586.56;;;0.77;67.29
41254;BME280;26987;59.928;30.306;2023-04-08T03:17:51;102637.25;;;1.11;68.07
41254;BME280;26987;59.928;30.306;2023-04-08T03:20:19;102624.03;;;1.11;67.71
41254;BME280;26987;59.928;30.306;2023-04-08T03:22:47;102633.06;;;1.21;67.58
41254;BME280;26987;59.928;30.306;2023-04-08T03:25:16;102634.28;;;1.58;67.07
41254;BME280;26987;59.928;30.306;2023-04-08T03:27:44;102631.25;;;2.18;64.22
41254;BME280;26987;59.928;30.306;2023-04-08T03:30:12;102632.38;;;2.92;61.92
41254;BME280;26987;59.928;30.306;2023-04-08T03:32:40;102629.84;;;3.52;59.30
41254;BME280;26987;59.928;30.306;2023-04-08T03:35:08;102634.03;;;4.26;56.01
41254;BME280;26987;59.928;30.306;2023-04-08T03:37:36;102638.31;;;4.75;54.51
41254;BME280;26987;59.928;30.306;2023-04-08T03:40:05;102637.59;;;5.40;51.97
41254;BME280;26987;59.928;30.306;2023-04-08T03:42:35;102649.97;;;5.74;50.56
41254;BME280;26987;59.928;30.306;2023-04-08T03:45:03;102633.97;;;5.95;49.25
41254;BME280;26987;59.928;30.306;2023-04-08T03:47:31;102645.38;;;6.40;48.16
41254;BME280;26987;59.928;30.306;2023-04-08T03:49:59;102648.13;;;6.91;46.63
41254;BME280;26987;59.928;30.306;2023-04-08T03:52:27;102653.84;;;7.37;45.24
41254;BME280;26987;59.928;30.306;2023-04-08T03:54:55;102655.38;;;7.89;43.78
41254;BME280;26987;59.928;30.306;2023-04-08T03:57:22;102651.13;;;8.26;42.85
41254;BME280;26987;59.928;30.306;2023-04-08T03:59:52;102649.75;;;8.70;42.02
41254;BME280;26987;59.928;30.306;2023-04-08T04:02:20;102649.50;;;9.19;40.88
41254;BME280;26987;59.928;30.306;2023-04-08T04:04:48;102646.53;;;9.41;40.12
41254;BME280;26987;59.928;30.306;2023-04-08T04:07:16;102650.03;;;9.78;39.20
41254;BME280;26987;59.928;30.306;2023-04-08T04:09:43;102633.91;;;10.14;38.02
41254;BME280;26987;59.928;30.306;2023-04-08T04:12:11;102652.34;;;10.70;37.25
41254;BME280;26987;59.928;30.306;2023-04-08T04:14:39;102656.16;;;11.03;36.13
41254;BME280;26987;59.928;30.306;2023-04-08T04:17:08;102649.19;;;11.35;36.27
41254;BME280;26987;59.928;30.306;2023-04-08T04:19:36;102650.22;;;11.59;34.73
41254;BME280;26987;59.928;30.306;2023-04-08T04:22:04;102659.78;;;11.78;34.79
41254;BME280;26987;59.928;30.306;2023-04-08T04:24:32;102655.94;;;12.06;33.62
41254;BME280;26987;59.928;30.306;2023-04-08T04:27:00;102660.69;;;12.69;33.47
41254;BME280;26987;59.928;30.306;2023-04-08T04:29:30;102649.97;;;12.92;32.97
41254;BME280;26987;59.928;30.306;2023-04-08T04:31:58;102649.94;;;13.01;32.19
41254;BME280;26987;59.928;30.306;2023-04-08T04:34:27;102651.56;;;13.42;31.80
41254;BME280;26987;59.928;30.306;2023-04-08T04:36:55;102646.19;;;13.65;31.55
41254;BME280;26987;59.928;30.306;2023-04-08T04:39:23;102641.22;;;13.92;30.88
41254;BME280;26987;59.928;30.306;2023-04-08T04:41:51;102655.03;;;14.12;30.50
41254;BME280;26987;59.928;30.306;2023-04-08T04:44:19;102645.66;;;14.38;30.00
41254;BME280;26987;59.928;30.306;2023-04-08T04:46:47;102651.22;;;14.67;29.70
41254;BME280;26987;59.928;30.306;2023-04-08T04:49:15;102654.22;;;14.87;29.32
41254;BME280;26987;59.928;30.306;2023-04-08T04:51:44;102640.63;;;15.18;28.98
41254;BME280;26987;59.928;30.306;2023-04-08T04:54:12;102647.47;;;15.13;28.51
41254;BME280;26987;59.928;30.306;2023-04-08T04:56:40;102625.28;;;15.03;28.35
41254;BME280;26987;59.928;30.306;2023-04-08T04:59:08;102644.19;;;15.03;28.63
41254;BME280;26987;59.928;30.306;2023-04-08T05:01:36;102635.47;;;15.01;28.36
41254;BME280;26987;59.928;30.306;2023-04-08T05:04:06;102629.41;;;14.99;28.42
41254;BME280;26987;59.928;30.306;2023-04-08T05:06:34;102635.09;;;15.26;28.10
41254;BME280;26987;59.928;30.306;2023-04-08T05:09:03;102643.66;;;15.30;28.17
41254;BME280;26987;59.928;30.306;2023-04-08T05:11:31;102639.44;;;15.42;27.84
41254;BME280;26987;59.928;30.306;2023-04-08T05:13:59;102641.47;;;15.40;27.56
41254;BME280;26987;59.928;30.306;2023-04-08T05:16:27;102640.91;;;15.95;27.20
41254;BME280;26987;59.928;30.306;2023-04-08T05:18:54;102643.81;;;15.94;26.88
41254;BME280;26987;59.928;30.306;2023-04-08T05:21:22;102641.09;;;15.94;26.96
41254;BME280;26987;59.928;30.306;2023-04-08T05:23:51;102614.63;;;15.89;26.68
41254;BME280;26987;59.928;30.306;2023-04-08T05:26:20;102642.81;;;16.23;26.48
41254;BME280;26987;59.928;30.306;2023-04-08T05:28:49;102647.91;;;16.40;26.02
41254;BME280;26987;59.928;30.306;2023-04-08T05:31:17;102635.38;;;16.39;25.79
41254;BME280;26987;59.928;30.306;2023-04-08T05:33:45;102629.06;;;16.67;25.56
41254;BME280;26987;59.928;30.306;2023-04-08T05:36:13;102640.41;;;16.91;25.64
41254;BME280;26987;59.928;30.306;2023-04-08T05:38:41;102641.09;;;17.07;25.50
41254;BME280;26987;59.928;30.306;2023-04-08T05:41:09;102640.63;;;16.96;25.53
41254;BME280;26987;59.928;30.306;2023-04-08T05:43:39;102649.03;;;17.08;25.32
41254;BME280;26987;59.928;30.306;2023-04-08T05:46:07;102601.44;;;16.92;25.40
41254;BME280;26987;59.928;30.306;2023-04-08T05:48:35;102641.97;;;17.21;24.94
41254;BME280;26987;59.928;30.306;2023-04-08T05:51:03;102635.91;;;17.19;24.93
41254;BME280;26987;59.928;30.306;2023-04-08T05:53:31;102637.41;;;17.21;24.96
41254;BME280;26987;59.928;30.306;2023-04-08T05:55:59;102641.59;;;17.37;24.88
41254;BME280;26987;59.928;30.306;2023-04-08T05:58:27;102634.28;;;17.31;24.90
41254;BME280;26987;59.928;30.306;2023-04-08T06:00:56;102634.09;;;17.39;24.75
41254;BME280;26987;59.928;30.306;2023-04-08T06:03:24;102625.53;;;17.36;24.83
41254;BME280;26987;59.928;30.306;2023-04-08T06:05:52;102628.25;;;17.36;24.57
41254;BME280;26987;59.928;30.306;2023-04-08T06:08:20;102629.44;;;17.13;24.88
41254;BME280;26987;59.928;30.306;2023-04-08T06:10:49;102632.00;;;17.48;24.64
41254;BME280;26987;59.928;30.306;2023-04-08T06:13:17;102627.00;;;17.65;24.61
41254;BME280;26987;59.928;30.306;2023-04-08T06:15:46;102633.88;;;17.95;24.35
41254;BME280;26987;59.928;30.306;2023-04-08T06:18:16;102632.41;;;17.99;24.38
41254;BME280;26987;59.928;30.306;2023-04-08T06:20:44;102628.88;;;17.78;24.35
41254;BME280;26987;59.928;30.306;2023-04-08T06:23:12;102630.94;;;17.90;24.36
41254;BME280;26987;59.928;30.306;2023-04-08T06:25:40;102633.25;;;17.86;24.52
41254;BME280;26987;59.928;30.306;2023-04-08T06:28:08;102631.16;;;17.88;24.44
41254;BME280;26987;59.928;30.306;2023-04-08T06:30:36;102630.31;;;18.22;24.38
41254;BME280;26987;59.928;30.306;2023-04-08T06:33:04;102628.22;;;18.17;24.45
41254;BME280;26987;59.928;30.306;2023-04-08T06:35:33;102625.53;;;17.70;24.88
41254;BME280;26987;59.928;30.306;2023-04-08T06:38:01;102627.00;;;17.52;24.97
41254;BME280;26987;59.928;30.306;2023-04-08T06:40:29;102631.34;;;16.70;25.72
41254;BME280;26987;59.928;30.306;2023-04-08T06:42:57;102614.97;;;16.36;25.95
41254;BME280;26987;59.928;30.306;2023-04-08T06:45:34;102622.34;;;15.63;27.11
41254;BME280;26987;59.928;30.306;2023-04-08T06:48:02;102621.72;;;14.81;28.34
41254;BME280;26987;59.928;30.306;2023-04-08T06:50:29;102615.66;;;13.88;29.69
41254;BME280;26987;59.928;30.306;2023-04-08T06:52:59;102620.03;;;13.89;30.09
41254;BME280;26987;59.928;30.306;2023-04-08T06:55:26;102608.75;;;13.70;30.16
41254;BME280;26987;59.928;30.306;2023-04-08T06:57:54;102608.44;;;13.18;30.96
41254;BME280;26987;59.928;30.306;2023-04-08T07:00:22;102607.75;;;12.93;31.17
41254;BME280;26987;59.928;30.306;2023-04-08T07:02:50;102617.97;;;12.66;32.04
41254;BME280;26987;59.928;30.306;2023-04-08T07:05:18;102593.88;;;12.41;32.41
41254;BME280;26987;59.928;30.306;2023-04-08T07:07:46;102620.00;;;12.15;32.59
41254;BME280;26987;59.928;30.306;2023-04-08T07:10:15;102618.78;;;11.93;33.52
41254;BME280;26987;59.928;30.306;2023-04-08T07:12:43;102615.47;;;11.57;33.98
41254;BME280;26987;59.928;30.306;2023-04-08T07:15:11;102610.72;;;11.18;34.74
41254;BME280;26987;59.928;30.306;2023-04-08T07:17:39;102611.41;;;11.20;34.99
41254;BME280;26987;59.928;30.306;2023-04-08T07:20:07;102616.00;;;10.84;34.85
41254;BME280;26987;59.928;30.306;2023-04-08T07:22:35;102595.84;;;10.72;34.88
41254;BME280;26987;59.928;30.306;2023-04-08T07:25:04;102601.00;;;10.65;35.88
41254;BME280;26987;59.928;30.306;2023-04-08T07:27:34;102605.53;;;10.38;35.56
41254;BME280;26987;59.928;30.306;2023-04-08T07:30:02;102601.28;;;9.92;36.35
41254;BME280;26987;59.928;30.306;2023-04-08T07:32:31;102607.13;;;9.69;36.97
41254;BME280;26987;59.928;30.306;2023-04-08T07:35:00;102606.28;;;9.51;37.00
41254;BME280;26987;59.928;30.306;2023-04-08T07:37:28;102596.19;;;9.26;37.47
41254;BME280;26987;59.928;30.306;2023-04-08T07:39:55;102611.47;;;9.52;37.40
41254;BME280;26987;59.928;30.306;2023-04-08T07:42:23;102600.41;;;9.29;37.69
41254;BME280;26987;59.928;30.306;2023-04-08T07:44:53;102612.09;;;9.10;38.06
41254;BME280;26987;59.928;30.306;2023-04-08T07:47:21;102608.28;;;8.84;38.52
41254;BME280;26987;59.928;30.306;2023-04-08T07:49:49;102611.16;;;8.73;38.90
41254;BME280;26987;59.928;30.306;2023-04-08T07:52:17;102605.03;;;8.62;39.03
41254;BME280;26987;59.928;30.306;2023-04-08T07:54:45;102605.31;;;8.59;39.20
41254;BME280;26987;59.928;30.306;2023-04-08T07:57:13;102607.59;;;8.54;39.31
41254;BME280;26987;59.928;30.306;2023-04-08T07:59:41;102616.56;;;8.53;39.48
41254;BME280;26987;59.928;30.306;2023-04-08T08:02:10;102611.22;;;8.53;39.40
41254;BME280;26987;59.928;30.306;2023-04-08T08:04:38;102607.88;;;8.51;39.58
41254;BME280;26987;59.928;30.306;2023-04-08T08:07:06;102603.63;;;8.58;39.65
41254;BME280;26987;59.928;30.306;2023-04-08T08:09:34;102602.59;;;8.69;39.50
41254;BME280;26987;59.928;30.306;2023-04-08T08:12:01;102602.53;;;8.79;39.20
41254;BME280;26987;59.928;30.306;2023-04-08T08:14:29;102550.72;;;8.52;39.17
41254;BME280;26987;59.928;30.306;2023-04-08T08:16:57;102604.63;;;8.85;38.89
41254;BME280;26987;59.928;30.306;2023-04-08T08:19:27;102593.03;;;8.94;38.79
41254;BME280;26987;59.928;30.306;2023-04-08T08:21:54;102596.50;;;9.05;38.46
41254;BME280;26987;59.928;30.306;2023-04-08T08:24:23;102601.25;;;9.11;38.02
41254;BME280;26987;59.928;30.306;2023-04-08T08:26:51;102600.53;;;9.09;38.53
41254;BME280;26987;59.928;30.306;2023-04-08T08:29:19;102598.31;;;9.04;38.52
41254;BME280;26987;59.928;30.306;2023-04-08T08:31:46;102604.28;;;9.16;38.58
41254;BME280;26987;59.928;30.306;2023-04-08T08:34:14;102585.63;;;9.06;38.06
41254;BME280;26987;59.928;30.306;2023-04-08T08:36:44;102599.53;;;9.10;38.06
41254;BME280;26987;59.928;30.306;2023-04-08T08:39:11;102589.50;;;8.94;38.43
41254;BME280;26987;59.928;30.306;2023-04-08T08:41:39;102590.25;;;8.86;38.52
41254;BME280;26987;59.928;30.306;2023-04-08T08:44:07;102600.09;;;8.86;38.65
41254;BME280;26987;59.928;30.306;2023-04-08T08:46:37;102588.75;;;9.02;39.02
41254;BME280;26987;59.928;30.306;2023-04-08T08:49:09;102592.81;;;9.06;38.33
41254;BME280;26987;59.928;30.306;2023-04-08T08:51:37;102587.00;;;9.11;38.73
41254;BME280;26987;59.928;30.306;2023-04-08T08:54:07;102591.47;;;9.20;37.93
41254;BME280;26987;59.928;30.306;2023-04-08T08:56:36;102594.81;;;9.22;38.09
41254;BME280;26987;59.928;30.306;2023-04-08T08:59:04;102589.53;;;9.30;37.83
41254;BME280;26987;59.928;30.306;2023-04-08T09:01:33;102589.69;;;9.29;37.92
41254;BME280;26987;59.928;30.306;2023-04-08T09:04:12;102591.06;;;9.33;37.98
41254;BME280;26987;59.928;30.306;2023-04-08T09:06:42;102592.75;;;9.34;38.16
41254;BME280;26987;59.928;30.306;2023-04-08T09:09:11;102590.31;;;9.41;38.02
41254;BME280;26987;59.928;30.306;2023-04-08T09:11:40;102586.88;;;9.49;38.29
41254;BME280;26987;59.928;30.306;2023-04-08T09:14:19;102570.53;;;9.60;38.00
41254;BME280;26987;59.928;30.306;2023-04-08T09:16:47;102575.78;;;9.70;38.06
41254;BME280;26987;59.928;30.306;2023-04-08T09:19:16;102577.69;;;9.78;37.96
41254;BME280;26987;59.928;30.306;2023-04-08T09:21:44;102575.41;;;9.83;38.09
41254;BME280;26987;59.928;30.306;2023-04-08T09:24:28;102573.50;;;10.02;37.44
41254;BME280;26987;59.928;30.306;2023-04-08T09:26:57;102574.63;;;9.91;37.74
41254;BME280;26987;59.928;30.306;2023-04-08T09:29:25;102566.53;;;9.82;37.79
41254;BME280;26987;59.928;30.306;2023-04-08T09:31:54;102565.44;;;9.93;37.65
41254;BME280;26987;59.928;30.306;2023-04-08T09:34:22;102570.97;;;10.00;36.50
41254;BME280;26987;59.928;30.306;2023-04-08T09:36:51;102565.84;;;10.07;36.70
41254;BME280;26987;59.928;30.306;2023-04-08T09:39:20;102545.25;;;10.07;37.01
41254;BME280;26987;59.928;30.306;2023-04-08T09:41:50;102558.75;;;10.24;35.47
41254;BME280;26987;59.928;30.306;2023-04-08T09:44:19;102555.88;;;10.26;34.98
41254;BME280;26987;59.928;30.306;2023-04-08T09:46:55;102562.13;;;10.34;35.16
41254;BME280;26987;59.928;30.306;2023-04-08T09:49:36;102548.84;;;10.25;34.61
41254;BME280;26987;59.928;30.306;2023-04-08T09:52:06;102556.72;;;10.26;34.89
41254;BME280;26987;59.928;30.306;2023-04-08T09:54:42;102563.13;;;10.33;34.59
41254;BME280;26987;59.928;30.306;2023-04-08T09:57:16;102558.94;;;10.39;34.84
41254;BME280;26987;59.928;30.306;2023-04-08T09:59:51;102541.03;;;10.40;34.79
41254;BME280;26987;59.928;30.306;2023-04-08T10:02:28;102553.50;;;10.49;35.29
41254;BME280;26987;59.928;30.306;2023-04-08T10:04:59;102552.50;;;10.50;35.10
41254;BME280;26987;59.928;30.306;2023-04-08T10:07:29;102552.00;;;10.46;34.80
41254;BME280;26987;59.928;30.306;2023-04-08T10:09:57;102544.44;;;10.50;34.86
41254;BME280;26987;59.928;30.306;2023-04-08T10:12:26;102542.13;;;10.55;34.92
41254;BME280;26987;59.928;30.306;2023-04-08T10:15:24;102541.97;;;10.65;34.89
41254;BME280;26987;59.928;30.306;2023-04-08T10:17:53;102544.81;;;10.55;34.54
41254;BME280;26987;59.928;30.306;2023-04-08T10:20:40;102541.34;;;10.71;34.53
41254;BME280;26987;59.928;30.306;2023-04-08T10:23:09;102544.19;;;10.70;34.12
41254;BME280;26987;59.928;30.306;2023-04-08T10:25:39;102538.16;;;10.76;34.37
41254;BME280;26987;59.928;30.306;2023-04-08T10:28:24;102545.59;;;10.99;34.81
41254;BME280;26987;59.928;30.306;2023-04-08T10:30:53;102520.94;;;10.87;34.09
41254;BME280;26987;59.928;30.306;2023-04-08T10:33:23;102548.13;;;11.09;34.54
41254;BME280;26987;59.928;30.306;2023-04-08T10:36:00;102541.09;;;11.25;34.69
41254;BME280;26987;59.928;30.306;2023-04-08T10:38:35;102546.78;;;11.21;33.82
41254;BME280;26987;59.928;30.306;2023-04-08T10:41:04;102521.59;;;11.06;34.32
41254;BME280;26987;59.928;30.306;2023-04-08T10:43:34;102535.53;;;11.34;33.69
41254;BME280;26987;59.928;30.306;2023-04-08T10:46:02;102536.53;;;11.42;34.02
41254;BME280;26987;59.928;30.306;2023-04-08T10:48:30;102529.69;;;11.47;33.76
41254;BME280;26987;59.928;30.306;2023-04-08T10:50:59;102530.00;;;11.53;34.03
41254;BME280;26987;59.928;30.306;2023-04-08T10:53:28;102531.31;;;11.57;33.70
41254;BME280;26987;59.928;30.306;2023-04-08T10:56:03;102527.66;;;11.58;33.87
41254;BME280;26987;59.928;30.306;2023-04-08T10:58:33;102525.13;;;11.48;33.63
41254;BME280;26987;59.928;30.306;2023-04-08T11:01:05;102524.97;;;11.58;33.20
41254;BME280;26987;59.928;30.306;2023-04-08T11:03:34;102523.44;;;11.55;33.46
41254;BME280;26987;59.928;30.306;2023-04-08T11:06:02;102519.94;;;11.55;33.30
41254;BME280;26987;59.928;30.306;2023-04-08T11:08:31;102517.59;;;11.52;33.21
41254;BME280;26987;59.928;30.306;2023-04-08T11:11:00;102504.66;;;11.30;33.69
41254;BME280;26987;59.928;30.306;2023-04-08T11:13:28;102520.25;;;11.43;33.01
41254;BME280;26987;59.928;30.306;2023-04-08T11:15:59;102508.19;;;11.47;33.18
41254;BME280;26987;59.928;30.306;2023-04-08T11:18:27;102513.19;;;11.51;32.70
41254;BME280;26987;59.928;30.306;2023-04-08T11:20:57;102520.28;;;11.35;33.02
41254;BME280;26987;59.928;30.306;2023-04-08T11:23:25;102509.03;;;11.15;33.49
41254;BME280;26987;59.928;30.306;2023-04-08T11:25:53;102496.44;;;10.90;33.38
41254;BME280;26987;59.928;30.306;2023-04-08T11:28:22;102510.84;;;10.89;33.46
41254;BME280;26987;59.928;30.306;2023-04-08T11:30:50;102509.69;;;10.92;33.78
41254;BME280;26987;59.928;30.306;2023-04-08T11:33:20;102509.16;;;10.96;33.36
41254;BME280;26987;59.928;30.306;2023-04-08T11:35:50;102433.84;;;10.56;33.87
41254;BME280;26987;59.928;30.306;2023-04-08T11:38:21;102495.59;;;11.06;33.78
41254;BME280;26987;59.928;30.306;2023-04-08T11:40:52;102511.72;;;11.23;33.83
41254;BME280;26987;59.928;30.306;2023-04-08T11:43:20;102499.66;;;11.19;33.44
41254;BME280;26987;59.928;30.306;2023-04-08T11:45:48;102472.97;;;11.01;33.64
41254;BME280;26987;59.928;30.306;2023-04-08T11:48:16;102486.03;;;11.12;33.85
41254;BME280;26987;59.928;30.306;2023-04-08T11:50:46;102498.78;;;11.35;33.90
41254;BME280;26987;59.928;30.306;2023-04-08T11:53:16;102454.16;;;11.09;33.92
41254;BME280;26987;59.928;30.306;2023-04-08T11:55:46;102493.91;;;11.47;33.74
41254;BME280;26987;59.928;30.306;2023-04-08T11:58:14;102501.13;;;11.46;34.04
41254;BME280;26987;59.928;30.306;2023-04-08T12:00:42;102491.75;;;11.34;34.34
41254;BME280;26987;59.928;30.306;2023-04-08T12:03:11;102493.94;;;11.22;34.54
41254;BME280;26987;59.928;30.306;2023-04-08T12:05:39;102487.03;;;11.19;34.20
41254;BME280;26987;59.928;30.306;2023-04-08T12:08:09;102490.41;;;11.30;34.33
41254;BME280;26987;59.928;30.306;2023-04-08T12:10:37;102488.38;;;11.23;34.56
41254;BME280;26987;59.928;30.306;2023-04-08T12:13:05;102489.75;;;11.28;34.21
41254;BME280;26987;59.928;30.306;2023-04-08T12:15:32;102488.06;;;11.18;34.28
41254;BME280;26987;59.928;30.306;2023-04-08T12:18:00;102490.41;;;11.21;34.67
41254;BME280;26987;59.928;30.306;2023-04-08T12:20:28;102482.34;;;11.21;34.39
41254;BME280;26987;59.928;30.306;2023-04-08T12:22:56;102477.97;;;11.29;34.29
41254;BME280;26987;59.928;30.306;2023-04-08T12:25:25;102483.69;;;11.34;34.44
41254;BME280;26987;59.928;30.306;2023-04-08T12:27:54;102481.34;;;11.31;34.11
41254;BME280;26987;59.928;30.306;2023-04-08T12:30:22;102482.84;;;11.25;34.42
41254;BME280;26987;59.928;30.306;2023-04-08T12:32:50;102486.88;;;11.21;33.97
41254;BME280;26987;59.928;30.306;2023-04-08T12:35:20;102480.50;;;11.14;33.92
41254;BME280;26987;59.928;30.306;2023-04-08T12:37:48;102473.63;;;11.03;34.23
41254;BME280;26987;59.928;30.306;2023-04-08T12:40:16;102478.97;;;11.03;34.35
41254;BME280;26987;59.928;30.306;2023-04-08T12:42:46;102476.63;;;11.00;34.75
41254;BME280;26987;59.928;30.306;2023-04-08T12:45:14;102467.25;;;10.95;34.78
41254;BME280;26987;59.928;30.306;2023-04-08T12:47:42;102465.56;;;10.94;34.31
41254;BME280;26987;59.928;30.306;2023-04-08T12:50:09;102473.63;;;11.03;34.51
41254;BME280;26987;59.928;30.306;2023-04-08T12:52:37;102462.06;;;11.02;34.22
41254;BME280;26987;59.928;30.306;2023-04-08T12:55:06;102447.59;;;10.95;34.34